East Ashtabula, Ohio
Current Conditions -  °F | °C
As of 8:53 PM on Saturday 22 Nov 2014 (Local Time) from KHZY Reporting Station
Overcast Overcast  
Wind Chill: 35°   Ceiling: 4000
Heat Index: 42°   Visibility: 10mi
Dew Point: 33°   Wind: 14mph
Humidity: 70%   Direction: 190°S
Pressure: 30.04"   Gusts: NA
Location:  41.8515°N, 80.79°W
Report Text: KHZY 230153Z AUTO 19012KT 10SM OVC040 06/01 A3004 RMK AO2 SLP178 T00560006
Loading
Personal Weather Stations






























Interactive Weather Map New forecast layout! Learn more

10-Day Weather Forecast

Advertisements
Track Severe Weather on mobile